sensor_id;sensor_type;location;lat;lon;timestamp;pressure;altitude;pressure_sealevel;temperature;humidity
22647;BME280;11490;42.726;23.268;2023-07-29T00:02:02;95099.28;;;20.07;70.46
22647;BME280;11490;42.726;23.268;2023-07-29T00:04:27;95099.91;;;20.04;70.89
22647;BME280;11490;42.726;23.268;2023-07-29T00:06:53;95100.31;;;19.97;71.09
22647;BME280;11490;42.726;23.268;2023-07-29T00:09:18;95108.50;;;19.92;70.21
22647;BME280;11490;42.726;23.268;2023-07-29T00:11:44;95116.34;;;19.94;69.67
22647;BME280;11490;42.726;23.268;2023-07-29T00:14:09;95106.72;;;19.88;70.07
22647;BME280;11490;42.726;23.268;2023-07-29T00:16:34;95100.06;;;19.67;70.79
22647;BME280;11490;42.726;23.268;2023-07-29T00:19:00;95100.69;;;19.91;70.20
22647;BME280;11490;42.726;23.268;2023-07-29T00:21:25;95098.06;;;19.86;70.18
22647;BME280;11490;42.726;23.268;2023-07-29T00:23:51;95092.63;;;19.72;71.15
22647;BME280;11490;42.726;23.268;2023-07-29T00:26:16;95093.34;;;19.78;71.31
22647;BME280;11490;42.726;23.268;2023-07-29T00:28:42;95091.84;;;19.72;71.53
22647;BME280;11490;42.726;23.268;2023-07-29T00:31:07;95079.00;;;19.64;71.58
22647;BME280;11490;42.726;23.268;2023-07-29T00:33:33;95092.31;;;19.41;71.88
22647;BME280;11490;42.726;23.268;2023-07-29T00:35:58;95079.16;;;19.53;71.24
22647;BME280;11490;42.726;23.268;2023-07-29T00:38:27;95091.19;;;19.61;71.22
22647;BME280;11490;42.726;23.268;2023-07-29T00:40:52;95086.19;;;19.54;71.57
22647;BME280;11490;42.726;23.268;2023-07-29T00:43:17;95084.13;;;19.46;71.41
22647;BME280;11490;42.726;23.268;2023-07-29T00:45:44;95090.88;;;19.30;72.21
22647;BME280;11490;42.726;23.268;2023-07-29T00:48:10;95086.13;;;19.41;72.16
22647;BME280;11490;42.726;23.268;2023-07-29T00:50:35;95089.09;;;19.39;72.29
22647;BME280;11490;42.726;23.268;2023-07-29T00:53:01;95089.50;;;19.33;72.45
22647;BME280;11490;42.726;23.268;2023-07-29T00:55:27;95092.91;;;19.38;72.00
22647;BME280;11490;42.726;23.268;2023-07-29T00:57:54;95093.81;;;19.34;72.49
22647;BME280;11490;42.726;23.268;2023-07-29T01:00:21;95095.63;;;19.38;72.02
22647;BME280;11490;42.726;23.268;2023-07-29T01:02:46;95070.94;;;19.26;72.15
22647;BME280;11490;42.726;23.268;2023-07-29T01:05:13;95078.63;;;19.19;72.96
22647;BME280;11490;42.726;23.268;2023-07-29T01:07:51;95083.44;;;19.22;72.76
22647;BME280;11490;42.726;23.268;2023-07-29T01:13:50;95081.00;;;19.20;72.80
22647;BME280;11490;42.726;23.268;2023-07-29T01:16:39;95077.59;;;19.15;72.65
22647;BME280;11490;42.726;23.268;2023-07-29T01:21:59;95083.81;;;19.15;72.85
22647;BME280;11490;42.726;23.268;2023-07-29T01:24:26;95074.19;;;19.09;73.01
22647;BME280;11490;42.726;23.268;2023-07-29T01:26:51;95077.06;;;19.13;72.73
22647;BME280;11490;42.726;23.268;2023-07-29T01:29:17;95080.38;;;19.10;72.96
22647;BME280;11490;42.726;23.268;2023-07-29T01:31:46;95066.44;;;19.03;73.38
22647;BME280;11490;42.726;23.268;2023-07-29T01:34:26;95074.56;;;19.03;73.56
22647;BME280;11490;42.726;23.268;2023-07-29T01:36:57;95068.72;;;18.96;73.87
22647;BME280;11490;42.726;23.268;2023-07-29T01:39:25;95078.94;;;18.99;73.82
22647;BME280;11490;42.726;23.268;2023-07-29T01:41:53;95084.84;;;19.01;73.39
22647;BME280;11490;42.726;23.268;2023-07-29T01:44:19;95079.97;;;19.03;73.67
22647;BME280;11490;42.726;23.268;2023-07-29T01:46:44;95084.94;;;18.96;73.84
22647;BME280;11490;42.726;23.268;2023-07-29T01:49:10;95080.09;;;18.93;73.59
22647;BME280;11490;42.726;23.268;2023-07-29T01:51:35;95071.66;;;18.80;74.04
22647;BME280;11490;42.726;23.268;2023-07-29T01:54:01;95080.56;;;18.81;73.67
22647;BME280;11490;42.726;23.268;2023-07-29T01:56:26;95067.38;;;18.74;74.12
22647;BME280;11490;42.726;23.268;2023-07-29T01:58:51;95079.31;;;18.73;74.26
22647;BME280;11490;42.726;23.268;2023-07-29T02:01:17;95083.03;;;18.77;73.91
22647;BME280;11490;42.726;23.268;2023-07-29T02:03:43;95090.25;;;18.82;74.13
22647;BME280;11490;42.726;23.268;2023-07-29T02:06:08;95090.25;;;18.82;74.45
22647;BME280;11490;42.726;23.268;2023-07-29T02:08:34;95082.94;;;18.82;74.22
22647;BME280;11490;42.726;23.268;2023-07-29T02:11:00;95076.00;;;18.76;74.63
22647;BME280;11490;42.726;23.268;2023-07-29T02:13:25;95090.47;;;18.86;73.98
22647;BME280;11490;42.726;23.268;2023-07-29T02:15:51;95084.03;;;18.81;74.31
22647;BME280;11490;42.726;23.268;2023-07-29T02:18:16;95096.81;;;18.76;74.44
22647;BME280;11490;42.726;23.268;2023-07-29T02:20:42;95089.59;;;18.71;74.63
22647;BME280;11490;42.726;23.268;2023-07-29T02:23:14;95090.19;;;18.68;74.80
22647;BME280;11490;42.726;23.268;2023-07-29T02:25:40;95079.97;;;18.65;74.88
22647;BME280;11490;42.726;23.268;2023-07-29T02:28:05;95094.41;;;18.74;74.53
22647;BME280;11490;42.726;23.268;2023-07-29T02:30:30;95085.38;;;18.65;74.81
22647;BME280;11490;42.726;23.268;2023-07-29T02:32:56;95081.09;;;18.59;75.25
22647;BME280;11490;42.726;23.268;2023-07-29T02:35:21;95094.13;;;18.57;75.38
22647;BME280;11490;42.726;23.268;2023-07-29T02:37:46;95100.53;;;18.61;75.36
22647;BME280;11490;42.726;23.268;2023-07-29T02:40:12;95088.72;;;18.57;75.58
22647;BME280;11490;42.726;23.268;2023-07-29T02:42:37;95097.31;;;18.59;75.30
22647;BME280;11490;42.726;23.268;2023-07-29T02:45:03;95098.00;;;18.46;75.88
22647;BME280;11490;42.726;23.268;2023-07-29T02:47:29;95093.16;;;18.43;75.80
22647;BME280;11490;42.726;23.268;2023-07-29T02:49:54;95085.66;;;18.40;75.44
22647;BME280;11490;42.726;23.268;2023-07-29T02:52:20;95100.78;;;18.41;75.96
22647;BME280;11490;42.726;23.268;2023-07-29T02:54:46;95108.59;;;18.42;76.00
22647;BME280;11490;42.726;23.268;2023-07-29T02:57:13;95093.06;;;18.29;76.52
22647;BME280;11490;42.726;23.268;2023-07-29T02:59:38;95098.13;;;18.36;76.63
22647;BME280;11490;42.726;23.268;2023-07-29T03:02:04;95112.59;;;18.21;77.09
22647;BME280;11490;42.726;23.268;2023-07-29T03:04:29;95113.56;;;18.12;78.01
22647;BME280;11490;42.726;23.268;2023-07-29T03:06:55;95107.09;;;18.07;76.85
22647;BME280;11490;42.726;23.268;2023-07-29T03:09:20;95109.91;;;17.97;77.89
22647;BME280;11490;42.726;23.268;2023-07-29T03:11:45;95110.19;;;17.72;78.38
22647;BME280;11490;42.726;23.268;2023-07-29T03:14:11;95111.69;;;17.83;78.89
22647;BME280;11490;42.726;23.268;2023-07-29T03:16:36;95105.59;;;17.96;77.86
22647;BME280;11490;42.726;23.268;2023-07-29T03:19:02;95111.00;;;17.73;78.64
22647;BME280;11490;42.726;23.268;2023-07-29T03:21:27;95107.13;;;17.50;80.63
22647;BME280;11490;42.726;23.268;2023-07-29T03:23:53;95117.28;;;17.63;80.15
22647;BME280;11490;42.726;23.268;2023-07-29T03:26:18;95117.16;;;17.73;79.08
22647;BME280;11490;42.726;23.268;2023-07-29T03:28:43;95122.00;;;17.76;79.11
22647;BME280;11490;42.726;23.268;2023-07-29T03:31:10;95125.91;;;17.65;79.08
22647;BME280;11490;42.726;23.268;2023-07-29T03:33:36;95128.47;;;17.75;79.42
22647;BME280;11490;42.726;23.268;2023-07-29T03:36:01;95115.50;;;17.43;80.72
22647;BME280;11490;42.726;23.268;2023-07-29T03:38:27;95110.78;;;17.59;79.99
22647;BME280;11490;42.726;23.268;2023-07-29T03:40:52;95115.22;;;17.45;80.35
22647;BME280;11490;42.726;23.268;2023-07-29T03:43:18;95115.09;;;17.65;80.49
22647;BME280;11490;42.726;23.268;2023-07-29T03:45:44;95117.66;;;17.80;79.73
22647;BME280;11490;42.726;23.268;2023-07-29T03:48:09;95115.13;;;17.89;78.58
22647;BME280;11490;42.726;23.268;2023-07-29T03:50:35;95120.50;;;17.65;79.61
22647;BME280;11490;42.726;23.268;2023-07-29T03:53:04;95116.84;;;17.80;78.80
22647;BME280;11490;42.726;23.268;2023-07-29T03:55:30;95116.13;;;17.69;79.58
22647;BME280;11490;42.726;23.268;2023-07-29T03:57:59;95114.47;;;17.73;80.14
22647;BME280;11490;42.726;23.268;2023-07-29T04:00:25;95117.97;;;17.74;79.91
22647;BME280;11490;42.726;23.268;2023-07-29T04:02:51;95107.09;;;17.84;78.85
22647;BME280;11490;42.726;23.268;2023-07-29T04:05:16;95123.84;;;18.04;78.27
22647;BME280;11490;42.726;23.268;2023-07-29T04:07:42;95110.19;;;17.72;78.98
22647;BME280;11490;42.726;23.268;2023-07-29T04:10:08;95125.00;;;17.41;80.07
22647;BME280;11490;42.726;23.268;2023-07-29T04:12:33;95125.47;;;17.48;80.21
22647;BME280;11490;42.726;23.268;2023-07-29T04:14:59;95123.78;;;17.57;79.35
22647;BME280;11490;42.726;23.268;2023-07-29T04:17:24;95126.50;;;17.86;78.63
22647;BME280;11490;42.726;23.268;2023-07-29T04:19:50;95125.13;;;17.88;77.45
22647;BME280;11490;42.726;23.268;2023-07-29T04:22:16;95122.09;;;17.66;78.84
22647;BME280;11490;42.726;23.268;2023-07-29T04:24:41;95125.00;;;17.98;77.80
22647;BME280;11490;42.726;23.268;2023-07-29T04:27:06;95121.91;;;17.86;78.81
22647;BME280;11490;42.726;23.268;2023-07-29T04:29:32;95128.31;;;17.90;79.10
22647;BME280;11490;42.726;23.268;2023-07-29T04:31:57;95130.66;;;18.02;78.03
22647;BME280;11490;42.726;23.268;2023-07-29T04:34:23;95136.28;;;18.05;78.17
22647;BME280;11490;42.726;23.268;2023-07-29T04:36:48;95137.03;;;18.11;77.63
22647;BME280;11490;42.726;23.268;2023-07-29T04:39:14;95136.88;;;18.26;77.32
22647;BME280;11490;42.726;23.268;2023-07-29T04:41:40;95119.41;;;18.19;77.51
22647;BME280;11490;42.726;23.268;2023-07-29T04:44:06;95130.31;;;18.32;77.71
22647;BME280;11490;42.726;23.268;2023-07-29T04:46:32;95139.78;;;18.30;78.83
22647;BME280;11490;42.726;23.268;2023-07-29T04:48:57;95126.06;;;18.50;76.88
22647;BME280;11490;42.726;23.268;2023-07-29T04:51:24;95139.84;;;18.49;77.17
22647;BME280;11490;42.726;23.268;2023-07-29T04:53:50;95141.78;;;18.43;76.94
22647;BME280;11490;42.726;23.268;2023-07-29T04:56:15;95151.66;;;18.53;77.44
22647;BME280;11490;42.726;23.268;2023-07-29T04:58:40;95147.06;;;18.53;78.26
22647;BME280;11490;42.726;23.268;2023-07-29T05:01:06;95153.41;;;18.67;77.34
22647;BME280;11490;42.726;23.268;2023-07-29T05:03:31;95154.56;;;18.61;77.39
22647;BME280;11490;42.726;23.268;2023-07-29T05:05:58;95156.34;;;18.90;76.16
22647;BME280;11490;42.726;23.268;2023-07-29T05:08:26;95152.38;;;18.63;77.77
22647;BME280;11490;42.726;23.268;2023-07-29T05:10:52;95165.44;;;18.99;76.75
22647;BME280;11490;42.726;23.268;2023-07-29T05:13:18;95153.22;;;19.01;76.55
22647;BME280;11490;42.726;23.268;2023-07-29T05:15:43;95165.38;;;19.04;75.83
22647;BME280;11490;42.726;23.268;2023-07-29T05:18:09;95151.84;;;19.04;76.58
22647;BME280;11490;42.726;23.268;2023-07-29T05:20:34;95158.84;;;19.05;76.98
22647;BME280;11490;42.726;23.268;2023-07-29T05:23:00;95161.56;;;19.23;76.56
22647;BME280;11490;42.726;23.268;2023-07-29T05:25:26;95155.53;;;19.45;75.70
22647;BME280;11490;42.726;23.268;2023-07-29T05:27:51;95152.84;;;19.45;74.19
22647;BME280;11490;42.726;23.268;2023-07-29T05:30:18;95154.63;;;19.55;74.70
22647;BME280;11490;42.726;23.268;2023-07-29T05:32:43;95148.50;;;19.49;74.96
22647;BME280;11490;42.726;23.268;2023-07-29T05:35:09;95154.38;;;19.70;74.62
22647;BME280;11490;42.726;23.268;2023-07-29T05:37:38;95147.34;;;19.69;74.41
22647;BME280;11490;42.726;23.268;2023-07-29T05:40:04;95164.03;;;19.90;74.74
22647;BME280;11490;42.726;23.268;2023-07-29T05:42:29;95169.50;;;20.04;73.50
22647;BME280;11490;42.726;23.268;2023-07-29T05:44:55;95158.63;;;19.90;73.90
22647;BME280;11490;42.726;23.268;2023-07-29T05:47:20;95157.06;;;20.03;73.24
22647;BME280;11490;42.726;23.268;2023-07-29T05:49:45;95159.91;;;20.11;73.35
22647;BME280;11490;42.726;23.268;2023-07-29T05:52:11;95157.88;;;20.03;73.10
22647;BME280;11490;42.726;23.268;2023-07-29T05:54:36;95156.28;;;20.29;73.39
22647;BME280;11490;42.726;23.268;2023-07-29T05:57:02;95154.91;;;20.46;72.84
22647;BME280;11490;42.726;23.268;2023-07-29T05:59:27;95164.34;;;20.62;72.55
22647;BME280;11490;42.726;23.268;2023-07-29T06:01:54;95170.59;;;20.49;72.48
22647;BME280;11490;42.726;23.268;2023-07-29T06:04:20;95166.38;;;20.70;72.29
22647;BME280;11490;42.726;23.268;2023-07-29T06:06:45;95166.34;;;20.84;72.31
22647;BME280;11490;42.726;23.268;2023-07-29T06:09:10;95151.91;;;20.88;71.95
22647;BME280;11490;42.726;23.268;2023-07-29T06:11:36;95168.34;;;21.05;71.27
22647;BME280;11490;42.726;23.268;2023-07-29T06:14:01;95170.94;;;21.24;70.66
22647;BME280;11490;42.726;23.268;2023-07-29T06:16:27;95163.47;;;21.30;69.71
22647;BME280;11490;42.726;23.268;2023-07-29T06:18:52;95142.00;;;21.20;68.75
22647;BME280;11490;42.726;23.268;2023-07-29T06:21:18;95161.91;;;21.51;69.30
22647;BME280;11490;42.726;23.268;2023-07-29T06:23:48;95154.38;;;21.70;69.17
22647;BME280;11490;42.726;23.268;2023-07-29T06:26:13;95147.09;;;21.79;67.80
22647;BME280;11490;42.726;23.268;2023-07-29T06:28:39;95142.78;;;21.78;66.09
22647;BME280;11490;42.726;23.268;2023-07-29T06:31:09;95134.53;;;21.92;67.84
22647;BME280;11490;42.726;23.268;2023-07-29T06:33:34;95129.09;;;22.06;66.90
22647;BME280;11490;42.726;23.268;2023-07-29T06:36:00;95147.56;;;22.26;66.86
22647;BME280;11490;42.726;23.268;2023-07-29T06:38:25;95120.69;;;22.24;66.63
22647;BME280;11490;42.726;23.268;2023-07-29T06:40:50;95119.00;;;22.37;66.37
22647;BME280;11490;42.726;23.268;2023-07-29T06:43:16;95126.28;;;22.68;65.59
22647;BME280;11490;42.726;23.268;2023-07-29T06:45:42;95142.31;;;22.78;64.72
22647;BME280;11490;42.726;23.268;2023-07-29T06:48:08;95126.00;;;22.78;65.61
22647;BME280;11490;42.726;23.268;2023-07-29T06:50:33;95129.56;;;22.87;65.68
22647;BME280;11490;42.726;23.268;2023-07-29T06:52:59;95124.97;;;23.13;64.72
22647;BME280;11490;42.726;23.268;2023-07-29T06:55:24;95129.88;;;22.94;63.64
22647;BME280;11490;42.726;23.268;2023-07-29T06:57:50;95140.63;;;23.08;65.20
22647;BME280;11490;42.726;23.268;2023-07-29T07:00:15;95128.47;;;23.31;64.61
22647;BME280;11490;42.726;23.268;2023-07-29T07:02:40;95125.75;;;23.39;63.87
22647;BME280;11490;42.726;23.268;2023-07-29T07:05:07;95129.78;;;23.76;62.06
22647;BME280;11490;42.726;23.268;2023-07-29T07:07:32;95123.06;;;23.74;60.73
22647;BME280;11490;42.726;23.268;2023-07-29T07:10:10;95087.03;;;23.42;61.19
22647;BME280;11490;42.726;23.268;2023-07-29T07:12:35;95127.38;;;23.92;61.84
22647;BME280;11490;42.726;23.268;2023-07-29T07:15:01;95120.91;;;24.05;59.26
22647;BME280;11490;42.726;23.268;2023-07-29T07:17:30;95115.81;;;23.78;59.96
22647;BME280;11490;42.726;23.268;2023-07-29T07:19:58;95123.34;;;23.90;59.33
22647;BME280;11490;42.726;23.268;2023-07-29T07:22:23;95124.75;;;24.22;59.16
22647;BME280;11490;42.726;23.268;2023-07-29T07:24:49;95136.69;;;24.46;58.80
22647;BME280;11490;42.726;23.268;2023-07-29T07:27:17;95121.47;;;24.37;60.00
22647;BME280;11490;42.726;23.268;2023-07-29T07:29:43;95132.50;;;24.78;57.04
22647;BME280;11490;42.726;23.268;2023-07-29T07:32:09;95133.72;;;24.89;56.96
22647;BME280;11490;42.726;23.268;2023-07-29T07:37:09;95096.06;;;24.83;57.70
22647;BME280;11490;42.726;23.268;2023-07-29T07:39:35;95117.56;;;25.14;56.16
22647;BME280;11490;42.726;23.268;2023-07-29T07:42:00;95129.81;;;25.49;54.50
22647;BME280;11490;42.726;23.268;2023-07-29T07:44:31;95123.16;;;25.59;55.75
22647;BME280;11490;42.726;23.268;2023-07-29T07:46:57;95106.22;;;25.65;54.54
22647;BME280;11490;42.726;23.268;2023-07-29T07:49:24;95110.81;;;25.74;56.12
22647;BME280;11490;42.726;23.268;2023-07-29T07:51:50;95126.53;;;26.10;55.30
22647;BME280;11490;42.726;23.268;2023-07-29T07:54:15;95122.78;;;26.14;53.67
22647;BME280;11490;42.726;23.268;2023-07-29T07:56:48;95123.50;;;26.23;50.61
22647;BME280;11490;42.726;23.268;2023-07-29T07:59:14;95131.97;;;26.30;51.73
22647;BME280;11490;42.726;23.268;2023-07-29T08:01:41;95126.31;;;26.48;49.00
22647;BME280;11490;42.726;23.268;2023-07-29T08:04:17;95120.09;;;26.26;47.71
22647;BME280;11490;42.726;23.268;2023-07-29T08:06:45;95129.50;;;26.74;49.18
22647;BME280;11490;42.726;23.268;2023-07-29T08:09:10;95121.31;;;26.86;49.49
22647;BME280;11490;42.726;23.268;2023-07-29T08:11:35;95129.75;;;27.17;49.55
22647;BME280;11490;42.726;23.268;2023-07-29T08:14:07;95130.44;;;26.78;47.42
22647;BME280;11490;42.726;23.268;2023-07-29T08:16:32;95102.59;;;26.76;48.60
22647;BME280;11490;42.726;23.268;2023-07-29T08:18:58;95119.97;;;26.92;46.91
22647;BME280;11490;42.726;23.268;2023-07-29T08:21:23;95127.09;;;27.33;48.03
22647;BME280;11490;42.726;23.268;2023-07-29T08:23:49;95111.78;;;27.72;47.79
22647;BME280;11490;42.726;23.268;2023-07-29T08:26:14;95087.34;;;27.79;45.65
22647;BME280;11490;42.726;23.268;2023-07-29T08:28:48;95072.84;;;27.39;45.48
22647;BME280;11490;42.726;23.268;2023-07-29T08:31:13;95107.47;;;27.99;47.65
22647;BME280;11490;42.726;23.268;2023-07-29T08:33:39;95096.84;;;28.13;45.73
22647;BME280;11490;42.726;23.268;2023-07-29T08:36:04;95090.13;;;27.95;42.53
22647;BME280;11490;42.726;23.268;2023-07-29T08:38:30;95100.59;;;27.77;43.12
22647;BME280;11490;42.726;23.268;2023-07-29T08:41:29;95105.00;;;28.10;45.12
22647;BME280;11490;42.726;23.268;2023-07-29T08:44:01;95093.38;;;28.28;42.49
22647;BME280;11490;42.726;23.268;2023-07-29T08:46:31;95083.63;;;28.15;41.35
22647;BME280;11490;42.726;23.268;2023-07-29T08:48:57;95079.75;;;28.48;42.85
22647;BME280;11490;42.726;23.268;2023-07-29T08:51:26;95099.75;;;28.95;41.64
22647;BME280;11490;42.726;23.268;2023-07-29T08:53:55;95077.59;;;28.88;41.86
22647;BME280;11490;42.726;23.268;2023-07-29T08:56:20;95103.13;;;29.39;42.93
22647;BME280;11490;42.726;23.268;2023-07-29T08:58:46;95084.94;;;29.00;40.28
22647;BME280;11490;42.726;23.268;2023-07-29T09:01:12;95101.31;;;28.96;39.98
22647;BME280;11490;42.726;23.268;2023-07-29T09:03:38;95086.91;;;28.84;36.43
22647;BME280;11490;42.726;23.268;2023-07-29T09:06:03;95092.91;;;28.73;38.22
22647;BME280;11490;42.726;23.268;2023-07-29T09:08:29;95097.59;;;29.04;37.82
22647;BME280;11490;42.726;23.268;2023-07-29T09:10:55;95083.97;;;29.27;39.51
22647;BME280;11490;42.726;23.268;2023-07-29T09:13:20;95083.66;;;29.48;39.09
22647;BME280;11490;42.726;23.268;2023-07-29T09:15:46;95083.91;;;29.24;37.29
22647;BME280;11490;42.726;23.268;2023-07-29T09:18:15;95061.75;;;29.52;39.19
22647;BME280;11490;42.726;23.268;2023-07-29T09:20:43;95070.84;;;29.75;38.58
22647;BME280;11490;42.726;23.268;2023-07-29T09:23:10;95053.78;;;29.85;37.37
22647;BME280;11490;42.726;23.268;2023-07-29T09:25:40;95049.44;;;29.45;37.29
22647;BME280;11490;42.726;23.268;2023-07-29T09:28:12;95076.88;;;29.80;36.57
22647;BME280;11490;42.726;23.268;2023-07-29T09:30:42;95070.63;;;30.03;37.78
22647;BME280;11490;42.726;23.268;2023-07-29T09:33:08;95057.16;;;29.98;35.08
22647;BME280;11490;42.726;23.268;2023-07-29T09:35:36;95051.03;;;30.04;35.90
22647;BME280;11490;42.726;23.268;2023-07-29T09:38:03;95039.47;;;29.95;32.57
22647;BME280;11490;42.726;23.268;2023-07-29T09:40:39;95078.19;;;30.51;33.47
22647;BME280;11490;42.726;23.268;2023-07-29T09:43:06;95065.81;;;30.87;31.46
22647;BME280;11490;42.726;23.268;2023-07-29T09:45:33;95060.78;;;31.49;32.39
22647;BME280;11490;42.726;23.268;2023-07-29T09:48:00;95041.59;;;30.51;31.62
22647;BME280;11490;42.726;23.268;2023-07-29T09:50:27;95034.13;;;31.27;33.16
22647;BME280;11490;42.726;23.268;2023-07-29T09:52:53;95044.94;;;31.72;31.52
22647;BME280;11490;42.726;23.268;2023-07-29T09:55:21;95053.00;;;31.88;30.90
22647;BME280;11490;42.726;23.268;2023-07-29T09:57:47;95066.88;;;32.32;29.98
22647;BME280;11490;42.726;23.268;2023-07-29T10:00:13;95041.59;;;31.60;29.74
22647;BME280;11490;42.726;23.268;2023-07-29T10:02:42;95042.00;;;31.92;30.68
22647;BME280;11490;42.726;23.268;2023-07-29T10:05:09;95034.38;;;32.15;30.81
22647;BME280;11490;42.726;23.268;2023-07-29T10:07:39;95035.22;;;31.86;31.06
22647;BME280;11490;42.726;23.268;2023-07-29T10:10:06;95033.53;;;32.11;30.75
22647;BME280;11490;42.726;23.268;2023-07-29T10:12:32;95046.94;;;31.76;30.63
22647;BME280;11490;42.726;23.268;2023-07-29T10:15:05;95031.69;;;30.01;31.70
22647;BME280;11490;42.726;23.268;2023-07-29T10:17:36;95022.78;;;30.53;31.20
22647;BME280;11490;42.726;23.268;2023-07-29T10:20:09;95016.53;;;30.82;31.37
22647;BME280;11490;42.726;23.268;2023-07-29T10:22:47;95021.34;;;31.15;32.37
22647;BME280;11490;42.726;23.268;2023-07-29T10:25:22;95024.34;;;32.00;32.32
22647;BME280;11490;42.726;23.268;2023-07-29T10:27:49;95025.03;;;32.30;31.36
22647;BME280;11490;42.726;23.268;2023-07-29T10:30:16;95007.69;;;32.26;31.12
22647;BME280;11490;42.726;23.268;2023-07-29T10:32:42;94989.56;;;32.32;28.57
22647;BME280;11490;42.726;23.268;2023-07-29T10:35:12;94992.75;;;32.34;29.42
22647;BME280;11490;42.726;23.268;2023-07-29T10:37:39;94998.56;;;32.70;28.77
22647;BME280;11490;42.726;23.268;2023-07-29T10:40:06;95013.66;;;31.95;28.43
22647;BME280;11490;42.726;23.268;2023-07-29T10:42:32;94985.03;;;32.10;28.36
22647;BME280;11490;42.726;23.268;2023-07-29T10:45:00;94997.50;;;32.37;28.14
22647;BME280;11490;42.726;23.268;2023-07-29T10:47:42;94997.31;;;32.64;28.63
22647;BME280;11490;42.726;23.268;2023-07-29T10:50:17;94989.97;;;32.82;28.10
22647;BME280;11490;42.726;23.268;2023-07-29T10:52:43;94971.75;;;32.70;28.13
22647;BME280;11490;42.726;23.268;2023-07-29T10:55:35;94987.25;;;31.27;28.19
22647;BME280;11490;42.726;23.268;2023-07-29T10:58:16;94971.47;;;31.57;28.20
22647;BME280;11490;42.726;23.268;2023-07-29T11:00:45;94978.50;;;31.51;29.77
22647;BME280;11490;42.726;23.268;2023-07-29T11:03:13;94979.91;;;32.12;29.31
22647;BME280;11490;42.726;23.268;2023-07-29T11:05:45;94984.41;;;31.87;28.52
22647;BME280;11490;42.726;23.268;2023-07-29T11:08:28;94985.66;;;32.37;29.05
22647;BME280;11490;42.726;23.268;2023-07-29T11:13:28;94974.81;;;30.80;28.73
22647;BME280;11490;42.726;23.268;2023-07-29T11:15:54;94976.41;;;31.75;28.44
22647;BME280;11490;42.726;23.268;2023-07-29T11:18:21;94964.41;;;31.97;29.69
22647;BME280;11490;42.726;23.268;2023-07-29T11:20:47;94961.94;;;31.51;26.72
22647;BME280;11490;42.726;23.268;2023-07-29T11:23:14;94953.25;;;31.16;26.87
22647;BME280;11490;42.726;23.268;2023-07-29T11:25:40;94982.94;;;32.00;27.47
22647;BME280;11490;42.726;23.268;2023-07-29T11:28:05;94972.31;;;32.02;27.57
22647;BME280;11490;42.726;23.268;2023-07-29T11:30:31;94956.06;;;31.90;27.12
22647;BME280;11490;42.726;23.268;2023-07-29T11:32:58;94960.81;;;31.56;27.54
22647;BME280;11490;42.726;23.268;2023-07-29T11:35:24;94966.13;;;31.71;26.79
22647;BME280;11490;42.726;23.268;2023-07-29T11:37:50;94946.78;;;31.68;26.92
22647;BME280;11490;42.726;23.268;2023-07-29T11:40:21;94939.72;;;32.15;27.13
22647;BME280;11490;42.726;23.268;2023-07-29T11:42:48;94959.47;;;32.17;26.46
22647;BME280;11490;42.726;23.268;2023-07-29T11:45:15;94939.88;;;32.29;27.54
22647;BME280;11490;42.726;23.268;2023-07-29T11:47:41;94929.06;;;32.68;27.00
22647;BME280;11490;42.726;23.268;2023-07-29T11:50:08;94957.66;;;32.93;26.73
22647;BME280;11490;42.726;23.268;2023-07-29T11:52:43;94942.75;;;33.15;27.58
22647;BME280;11490;42.726;23.268;2023-07-29T11:55:09;94937.41;;;33.51;27.27
22647;BME280;11490;42.726;23.268;2023-07-29T11:57:37;94934.97;;;33.35;26.85
22647;BME280;11490;42.726;23.268;2023-07-29T12:00:04;94942.78;;;33.19;26.14
22647;BME280;11490;42.726;23.268;2023-07-29T12:02:32;94935.59;;;33.00;26.41
22647;BME280;11490;42.726;23.268;2023-07-29T12:04:58;94934.34;;;32.87;26.33
22647;BME280;11490;42.726;23.268;2023-07-29T12:07:24;94925.56;;;32.71;27.66
22647;BME280;11490;42.726;23.268;2023-07-29T12:09:50;94906.81;;;32.39;26.70
22647;BME280;11490;42.726;23.268;2023-07-29T12:12:15;94906.53;;;32.04;26.62
22647;BME280;11490;42.726;23.268;2023-07-29T12:14:47;94915.34;;;32.20;27.50
22647;BME280;11490;42.726;23.268;2023-07-29T12:17:13;94893.91;;;32.03;27.32
22647;BME280;11490;42.726;23.268;2023-07-29T12:19:39;94923.06;;;32.52;26.68
22647;BME280;11490;42.726;23.268;2023-07-29T12:22:07;94905.63;;;31.89;26.94
22647;BME280;11490;42.726;23.268;2023-07-29T12:24:35;94897.03;;;32.01;27.11
22647;BME280;11490;42.726;23.268;2023-07-29T12:27:01;94899.97;;;32.19;26.82
22647;BME280;11490;42.726;23.268;2023-07-29T12:29:27;94909.88;;;32.27;27.39
22647;BME280;11490;42.726;23.268;2023-07-29T12:32:03;94904.47;;;32.41;28.01
22647;BME280;11490;42.726;23.268;2023-07-29T12:34:29;94922.50;;;32.28;27.04
22647;BME280;11490;42.726;23.268;2023-07-29T12:36:57;94893.38;;;31.90;26.62
22647;BME280;11490;42.726;23.268;2023-07-29T12:39:29;94880.44;;;31.94;26.05
22647;BME280;11490;42.726;23.268;2023-07-29T12:41:56;94904.88;;;31.96;26.47
22647;BME280;11490;42.726;23.268;2023-07-29T12:44:30;94909.66;;;32.06;29.12
22647;BME280;11490;42.726;23.268;2023-07-29T12:46:56;94903.97;;;31.85;28.84
22647;BME280;11490;42.726;23.268;2023-07-29T12:49:22;94897.66;;;31.81;27.96
22647;BME280;11490;42.726;23.268;2023-07-29T12:51:47;94910.03;;;31.97;26.81
22647;BME280;11490;42.726;23.268;2023-07-29T12:54:13;94902.94;;;32.00;26.87
22647;BME280;11490;42.726;23.268;2023-07-29T12:56:38;94909.00;;;32.16;27.66
22647;BME280;11490;42.726;23.268;2023-07-29T12:59:04;94906.66;;;32.18;26.77
22647;BME280;11490;42.726;23.268;2023-07-29T13:01:30;94900.16;;;32.00;26.36